createdAt,value
2023-09-02T22:16:17.912Z,1020.39
2023-09-02T22:17:16.581Z,1020.38
2023-09-02T22:18:16.616Z,1020.35
2023-09-02T22:19:16.647Z,1020.31
2023-09-02T22:20:16.697Z,1020.32
2023-09-02T22:21:16.716Z,1020.29
2023-09-02T22:22:16.986Z,1020.29
2023-09-02T22:23:16.779Z,1020.31
2023-09-02T22:24:16.814Z,1020.30
2023-09-02T22:25:16.851Z,1020.30
2023-09-02T22:26:16.866Z,1020.30
2023-09-02T22:27:16.897Z,1020.28
2023-09-02T22:28:16.934Z,1020.32
2023-09-02T22:29:17.209Z,1020.29
2023-09-02T22:30:17.006Z,1020.30
2023-09-02T22:31:17.061Z,1020.27
2023-09-02T22:32:17.074Z,1020.28
2023-09-02T22:33:17.088Z,1020.29
2023-09-02T22:34:17.118Z,1020.31
2023-09-02T22:35:17.152Z,1020.30
2023-09-02T22:36:17.490Z,1020.28
2023-09-02T22:37:17.216Z,1020.31
2023-09-02T22:38:17.251Z,1020.30
2023-09-02T22:39:17.279Z,1020.33
2023-09-02T22:40:17.311Z,1020.34
2023-09-02T22:41:17.349Z,1020.31
2023-09-02T22:42:17.669Z,1020.32
2023-09-02T22:43:17.491Z,1020.30
2023-09-02T22:44:17.433Z,1020.33
2023-09-02T22:45:17.465Z,1020.31
2023-09-02T22:46:17.773Z,1020.29
2023-09-02T22:47:17.529Z,1020.31
2023-09-02T22:48:17.877Z,1020.31
2023-09-02T22:49:17.600Z,1020.31
2023-09-02T22:50:17.625Z,1020.31
2023-09-02T22:51:17.660Z,1020.30
2023-09-02T22:52:17.678Z,1020.34
2023-09-02T22:53:17.916Z,1020.32
2023-09-02T22:55:18.022Z,1020.40
2023-09-02T22:56:17.801Z,1020.39
2023-09-02T22:57:17.851Z,1020.40
2023-09-02T22:58:17.869Z,1020.44
2023-09-02T22:59:20.248Z,1020.46
2023-09-02T23:00:17.930Z,1020.48
2023-09-02T23:01:18.360Z,1020.51
2023-09-02T23:02:17.997Z,1020.50
2023-09-02T23:03:18.289Z,1020.54
2023-09-02T23:04:18.088Z,1020.56
2023-09-02T23:05:18.083Z,1020.55
2023-09-02T23:06:18.121Z,1020.61
2023-09-02T23:07:18.150Z,1020.59
2023-09-02T23:08:18.482Z,1020.60
2023-09-02T23:09:18.222Z,1020.62
2023-09-02T23:10:18.238Z,1020.65
2023-09-02T23:11:18.269Z,1020.68
2023-09-02T23:12:18.305Z,1020.67
2023-09-02T23:13:18.669Z,1020.74
2023-09-02T23:14:18.367Z,1020.74
2023-09-02T23:15:18.683Z,1020.78
2023-09-02T23:16:18.411Z,1020.79
2023-09-02T23:17:18.441Z,1020.82
2023-09-02T23:18:18.770Z,1020.83
2023-09-02T23:19:18.505Z,1020.85
2023-09-02T23:20:18.559Z,1020.83
2023-09-02T23:21:18.645Z,1020.84
2023-09-02T23:22:18.898Z,1020.88
2023-09-02T23:23:18.639Z,1020.88
2023-09-02T23:24:18.655Z,1020.86
2023-09-02T23:25:18.688Z,1020.85
2023-09-02T23:26:19.040Z,1020.84
2023-09-02T23:27:18.753Z,1020.84
2023-09-02T23:28:19.098Z,1020.83
2023-09-02T23:29:19.213Z,1020.81
2023-09-02T23:30:18.861Z,1020.83
2023-09-02T23:31:18.908Z,1020.86
2023-09-02T23:32:18.922Z,1020.82
2023-09-02T23:33:18.938Z,1020.85
2023-09-02T23:34:18.974Z,1020.82
2023-09-02T23:35:19.001Z,1020.82
2023-09-02T23:36:19.350Z,1020.83
2023-09-02T23:37:19.064Z,1020.81
2023-09-02T23:38:19.335Z,1020.85
2023-09-02T23:39:19.204Z,1020.82
2023-09-02T23:40:19.146Z,1020.80
2023-09-02T23:41:19.181Z,1020.74
2023-09-02T23:42:20.960Z,1020.74
2023-09-02T23:43:19.490Z,1020.74
2023-09-02T23:44:19.273Z,1020.79
2023-09-02T23:45:19.352Z,1020.74
2023-09-02T23:46:19.380Z,1020.78
2023-09-02T23:47:19.366Z,1020.81
2023-09-02T23:48:20.027Z,1020.84
2023-09-02T23:49:19.438Z,1020.82
2023-09-02T23:50:19.758Z,1020.84
2023-09-02T23:51:19.489Z,1020.82
2023-09-02T23:52:19.549Z,1020.84
2023-09-02T23:53:19.546Z,1020.81
2023-09-02T23:54:19.585Z,1020.79
2023-09-02T23:55:19.629Z,1020.79
2023-09-02T23:56:19.646Z,1020.73
2023-09-02T23:57:19.970Z,1020.70
2023-09-02T23:58:19.987Z,1020.70
2023-09-02T23:59:19.729Z,1020.70
